createdAt,value
2022-09-04T00:00:42.270Z,19.7
2022-09-04T00:01:45.905Z,19.8
2022-09-04T00:02:48.980Z,19.7
2022-09-04T00:03:52.284Z,19.7
2022-09-04T00:04:56.377Z,19.7
2022-09-04T00:06:00.169Z,19.8
2022-09-04T00:07:02.774Z,19.7
2022-09-04T00:08:06.206Z,19.7
2022-09-04T00:09:09.111Z,19.7
2022-09-04T00:10:10.883Z,19.7
2022-09-04T00:11:13.785Z,19.7
2022-09-04T00:12:17.199Z,19.7
2022-09-04T00:13:19.527Z,19.7
2022-09-04T00:14:22.874Z,19.7
2022-09-04T00:15:25.666Z,19.7
2022-09-04T00:16:29.266Z,19.7
2022-09-04T00:17:31.999Z,19.7
2022-09-04T00:18:35.431Z,19.7
2022-09-04T00:19:38.141Z,19.7
2022-09-04T00:20:40.543Z,19.7
2022-09-04T00:21:43.335Z,19.7
2022-09-04T00:22:46.777Z,19.7
2022-09-04T00:23:49.729Z,19.7
2022-09-04T00:24:52.249Z,19.7
2022-09-04T00:25:55.100Z,19.7
2022-09-04T00:26:58.549Z,19.7
2022-09-04T00:28:01.977Z,19.7
2022-09-04T00:29:04.773Z,19.7
2022-09-04T00:30:07.845Z,19.7
2022-09-04T00:31:10.464Z,19.7
2022-09-04T00:32:13.309Z,19.7
2022-09-04T00:33:17.011Z,19.7
2022-09-04T00:34:19.961Z,19.7
2022-09-04T00:35:23.029Z,19.7
2022-09-04T00:36:26.025Z,19.7
2022-09-04T00:37:29.455Z,19.7
2022-09-04T00:38:32.804Z,19.7
2022-09-04T00:39:36.520Z,19.7
2022-09-04T00:40:39.502Z,19.7
2022-09-04T00:41:42.291Z,19.7
2022-09-04T00:42:45.441Z,19.7
2022-09-04T00:43:48.054Z,19.7
2022-09-04T00:44:51.803Z,19.7
2022-09-04T00:45:54.520Z,19.7
2022-09-04T00:46:57.878Z,19.7
2022-09-04T00:48:01.052Z,19.7
2022-09-04T00:49:04.138Z,19.7
2022-09-04T00:50:07.477Z,19.6
2022-09-04T00:51:10.268Z,19.6
2022-09-04T00:52:13.062Z,19.6
2022-09-04T00:53:15.915Z,19.6
2022-09-04T00:54:19.077Z,19.6
2022-09-04T00:55:22.060Z,19.6
2022-09-04T00:56:24.945Z,19.6
2022-09-04T00:57:28.087Z,19.6
2022-09-04T00:58:30.959Z,19.6
2022-09-04T00:59:33.276Z,19.6
2022-09-04T01:00:35.530Z,19.6
2022-09-04T01:01:40.148Z,19.6
2022-09-04T01:02:43.658Z,19.6
2022-09-04T01:03:48.842Z,19.6
2022-09-04T01:04:51.575Z,19.6
2022-09-04T01:05:54.840Z,19.6
2022-09-04T01:06:58.123Z,19.6
2022-09-04T01:08:01.206Z,19.7
2022-09-04T01:09:04.367Z,19.7
2022-09-04T01:10:07.345Z,19.7
2022-09-04T01:11:10.828Z,19.6
2022-09-04T01:12:14.480Z,19.7
2022-09-04T01:13:17.271Z,19.7
2022-09-04T01:14:20.692Z,19.6
2022-09-04T01:15:23.849Z,19.6
2022-09-04T01:16:26.957Z,19.7
2022-09-04T01:17:30.183Z,19.6
2022-09-04T01:18:33.050Z,19.7
2022-09-04T01:19:35.756Z,19.6
2022-09-04T01:20:39.485Z,19.6
2022-09-04T01:21:44.126Z,19.7
2022-09-04T01:22:47.557Z,19.6
2022-09-04T01:23:50.162Z,19.6
2022-09-04T01:24:53.363Z,19.6
2022-09-04T01:25:56.501Z,19.6
2022-09-04T01:26:59.006Z,19.6
2022-09-04T01:28:02.270Z,19.6
2022-09-04T01:29:04.867Z,19.6
2022-09-04T01:30:07.573Z,19.6
2022-09-04T01:31:10.726Z,19.6
2022-09-04T01:32:13.864Z,19.6
2022-09-04T01:33:17.375Z,19.6
2022-09-04T01:34:19.983Z,19.6
2022-09-04T01:35:22.499Z,19.6
2022-09-04T01:36:25.859Z,19.6
2022-09-04T01:37:29.552Z,19.6
2022-09-04T01:38:32.687Z,19.6
2022-09-04T01:39:35.620Z,19.6
2022-09-04T01:40:37.433Z,19.6
2022-09-04T01:41:40.904Z,19.6
2022-09-04T01:42:44.058Z,19.6
2022-09-04T01:43:47.027Z,19.6
2022-09-04T01:44:50.181Z,19.6
2022-09-04T01:45:52.658Z,19.6
2022-09-04T01:46:56.509Z,19.6
2022-09-04T01:47:59.582Z,19.6
2022-09-04T01:49:02.469Z,19.6
2022-09-04T01:50:05.907Z,19.6
2022-09-04T01:51:08.623Z,19.5
2022-09-04T01:52:11.693Z,19.6
2022-09-04T01:53:15.700Z,19.6
2022-09-04T01:54:20.559Z,19.5
2022-09-04T01:55:23.703Z,19.6
2022-09-04T01:56:26.218Z,19.5
2022-09-04T01:57:29.288Z,19.5
2022-09-04T01:58:32.281Z,19.5
2022-09-04T01:59:34.519Z,19.5
2022-09-04T02:00:38.357Z,19.5
2022-09-04T02:01:41.942Z,19.5
2022-09-04T02:02:52.097Z,19.5
2022-09-04T02:03:56.435Z,19.5
2022-09-04T02:04:59.311Z,19.5
2022-09-04T02:06:09.557Z,19.5
2022-09-04T02:07:12.652Z,19.4
2022-09-04T02:08:15.808Z,19.4
2022-09-04T02:09:18.679Z,19.5
2022-09-04T02:10:21.770Z,19.4
2022-09-04T02:11:28.753Z,19.4
2022-09-04T02:12:32.479Z,19.4
2022-09-04T02:13:35.082Z,19.4
2022-09-04T02:14:38.543Z,19.4
2022-09-04T02:15:41.608Z,19.4
2022-09-04T02:16:44.754Z,19.4
2022-09-04T02:17:48.543Z,19.4
2022-09-04T02:18:51.663Z,19.4
2022-09-04T02:19:55.019Z,19.4
2022-09-04T02:20:57.593Z,19.4
2022-09-04T02:22:01.112Z,19.4
2022-09-04T02:23:04.304Z,19.4
2022-09-04T02:24:07.290Z,19.4
2022-09-04T02:25:10.714Z,19.4
2022-09-04T02:26:13.514Z,19.4
2022-09-04T02:27:17.563Z,19.4
2022-09-04T02:28:20.748Z,19.4
2022-09-04T02:29:23.279Z,19.3
2022-09-04T02:30:26.138Z,19.3
2022-09-04T02:31:29.592Z,19.3
2022-09-04T02:32:32.540Z,19.3
2022-09-04T02:33:35.415Z,19.3
2022-09-04T02:34:38.234Z,19.3
2022-09-04T02:35:41.606Z,19.3
2022-09-04T02:36:44.748Z,19.3
2022-09-04T02:37:52.334Z,19.3
2022-09-04T02:38:54.922Z,19.3
2022-09-04T02:39:58.245Z,19.3
2022-09-04T02:41:01.276Z,19.3
2022-09-04T02:42:03.513Z,19.3
2022-09-04T02:43:07.269Z,19.3
2022-09-04T02:44:10.340Z,19.2
2022-09-04T02:45:12.939Z,19.2
2022-09-04T02:46:16.473Z,19.2
2022-09-04T02:47:19.724Z,19.2
2022-09-04T02:48:22.862Z,19.2
2022-09-04T02:49:26.555Z,19.2
2022-09-04T02:50:28.943Z,19.2
2022-09-04T02:51:31.835Z,19.2
2022-09-04T02:52:34.710Z,19.2
2022-09-04T02:53:37.659Z,19.2
2022-09-04T02:54:41.016Z,19.2
2022-09-04T02:55:44.089Z,19.1
2022-09-04T02:56:47.063Z,19.2
2022-09-04T02:57:52.609Z,19.2
2022-09-04T02:58:57.555Z,19.2
2022-09-04T03:00:00.432Z,19.2
2022-09-04T03:01:03.850Z,19.2
2022-09-04T03:02:07.283Z,19.2
2022-09-04T03:03:09.735Z,19.2
2022-09-04T03:04:13.088Z,19.2
2022-09-04T03:05:15.686Z,19.2
2022-09-04T03:06:18.964Z,19.2
2022-09-04T03:07:22.113Z,19.2
2022-09-04T03:08:26.145Z,19.1
2022-09-04T03:09:30.394Z,19.2
2022-09-04T03:10:33.667Z,19.2
2022-09-04T03:11:37.000Z,19.1
2022-09-04T03:12:39.860Z,19.1
2022-09-04T03:13:45.115Z,19.1
2022-09-04T03:14:49.378Z,19.1
2022-09-04T03:15:53.081Z,19.1
2022-09-04T03:16:56.412Z,19.1
2022-09-04T03:17:59.359Z,19.1
2022-09-04T03:19:02.222Z,19.1
2022-09-04T03:20:10.339Z,19.1
2022-09-04T03:21:13.794Z,19.1
2022-09-04T03:22:17.217Z,19
2022-09-04T03:23:20.185Z,19
2022-09-04T03:24:22.890Z,19
2022-09-04T03:25:26.231Z,19
2022-09-04T03:26:29.581Z,19
2022-09-04T03:27:32.079Z,19
2022-09-04T03:28:35.517Z,19
2022-09-04T03:29:38.583Z,19
2022-09-04T03:30:40.921Z,19
2022-09-04T03:31:47.734Z,19
2022-09-04T03:32:50.903Z,19
2022-09-04T03:33:54.875Z,18.9
2022-09-04T03:34:58.549Z,18.9
2022-09-04T03:36:02.037Z,18.9
2022-09-04T03:37:05.291Z,18.9
2022-09-04T03:38:07.736Z,18.9
2022-09-04T03:39:10.451Z,18.9
2022-09-04T03:40:13.048Z,18.9
2022-09-04T03:41:16.914Z,18.8
2022-09-04T03:42:19.153Z,18.8
2022-09-04T03:43:22.318Z,18.8
2022-09-04T03:44:25.108Z,18.8
2022-09-04T03:45:28.335Z,18.8
2022-09-04T03:46:31.929Z,18.8
2022-09-04T03:47:35.414Z,18.8
2022-09-04T03:48:38.758Z,18.8
2022-09-04T03:49:41.264Z,18.7
2022-09-04T03:50:44.384Z,18.7
2022-09-04T03:51:50.596Z,18.7
2022-09-04T03:52:54.066Z,18.7
2022-09-04T03:53:57.549Z,18.7
2022-09-04T03:55:00.547Z,18.7
2022-09-04T03:56:03.060Z,18.6
2022-09-04T03:57:06.305Z,18.6
2022-09-04T03:58:09.380Z,18.6
2022-09-04T03:59:12.522Z,18.6
2022-09-04T04:00:15.618Z,18.6
2022-09-04T04:01:25.664Z,18.6
2022-09-04T04:02:28.448Z,18.6
2022-09-04T04:03:30.715Z,18.6
2022-09-04T04:04:33.870Z,18.6
2022-09-04T04:05:37.222Z,18.6
2022-09-04T04:06:39.827Z,18.6
2022-09-04T04:07:43.040Z,18.5
2022-09-04T04:08:45.572Z,18.5
2022-09-04T04:09:48.977Z,18.5
2022-09-04T04:10:51.825Z,18.5
2022-09-04T04:11:54.733Z,18.5
2022-09-04T04:12:57.444Z,18.5
2022-09-04T04:14:00.881Z,18.5
2022-09-04T04:15:03.769Z,18.5
2022-09-04T04:16:06.980Z,18.5
2022-09-04T04:17:19.938Z,18.5
2022-09-04T04:18:24.250Z,18.5
2022-09-04T04:19:26.913Z,18.5
2022-09-04T04:20:29.157Z,18.5
2022-09-04T04:21:31.848Z,18.4
2022-09-04T04:22:34.441Z,18.4
2022-09-04T04:23:37.790Z,18.4
2022-09-04T04:24:40.862Z,18.4
2022-09-04T04:25:52.249Z,18.4
2022-09-04T04:26:55.486Z,18.4
2022-09-04T04:27:58.154Z,18.4
2022-09-04T04:29:03.659Z,18.4
2022-09-04T04:30:07.005Z,18.4
2022-09-04T04:31:09.906Z,18.4
2022-09-04T04:32:12.889Z,18.4
2022-09-04T04:33:16.371Z,18.4
2022-09-04T04:34:18.971Z,18.4
2022-09-04T04:35:22.030Z,18.4
2022-09-04T04:36:24.700Z,18.4
2022-09-04T04:37:29.879Z,18.4
2022-09-04T04:38:32.748Z,18.4
2022-09-04T04:39:35.979Z,18.4
2022-09-04T04:40:39.713Z,18.4
2022-09-04T04:41:43.209Z,18.4
2022-09-04T04:42:46.209Z,18.3
2022-09-04T04:43:48.723Z,18.4
2022-09-04T04:44:50.965Z,18.4
2022-09-04T04:45:53.958Z,18.3
2022-09-04T04:46:58.851Z,18.3
2022-09-04T04:48:01.982Z,18.3
2022-09-04T04:49:04.970Z,18.3
2022-09-04T04:50:08.043Z,18.3
2022-09-04T04:51:10.560Z,18.3
2022-09-04T04:52:13.167Z,18.3
2022-09-04T04:53:15.763Z,18.3
2022-09-04T04:54:18.638Z,18.3
2022-09-04T04:55:21.512Z,18.3
2022-09-04T04:56:23.823Z,18.3
2022-09-04T04:57:26.981Z,18.3
2022-09-04T04:58:30.401Z,18.3
2022-09-04T04:59:33.261Z,18.3
2022-09-04T05:00:36.324Z,18.3
2022-09-04T05:01:40.231Z,18.3
2022-09-04T05:02:43.749Z,18.3
2022-09-04T05:03:47.655Z,18.3
2022-09-04T05:04:50.899Z,18.3
2022-09-04T05:05:53.757Z,18.3
2022-09-04T05:06:56.930Z,18.3
2022-09-04T05:07:59.436Z,18.3
2022-09-04T05:09:10.547Z,18.3
2022-09-04T05:10:13.583Z,18.3
2022-09-04T05:11:16.159Z,18.3
2022-09-04T05:12:19.024Z,18.3
2022-09-04T05:13:21.876Z,18.3
2022-09-04T05:14:25.019Z,18.3
2022-09-04T05:15:28.090Z,18.3
2022-09-04T05:16:30.836Z,18.3
2022-09-04T05:17:34.303Z,18.3
2022-09-04T05:18:36.897Z,18.3
2022-09-04T05:19:40.862Z,18.3
2022-09-04T05:20:43.934Z,18.2
2022-09-04T05:21:47.084Z,18.3
2022-09-04T05:22:49.771Z,18.2
2022-09-04T05:23:52.915Z,18.2
2022-09-04T05:24:56.889Z,18.2
2022-09-04T05:25:59.220Z,18.2
2022-09-04T05:27:02.295Z,18.2
2022-09-04T05:28:04.621Z,18.2
2022-09-04T05:29:06.659Z,18.3
2022-09-04T05:30:08.900Z,18.2
2022-09-04T05:31:12.130Z,18.3
2022-09-04T05:32:15.279Z,18.3
2022-09-04T05:33:18.438Z,18.3
2022-09-04T05:34:21.026Z,18.3
2022-09-04T05:35:35.806Z,18.3
2022-09-04T05:36:38.576Z,18.3
2022-09-04T05:37:41.469Z,18.3
2022-09-04T05:38:44.511Z,18.3
2022-09-04T05:39:48.894Z,18.4
2022-09-04T05:40:53.678Z,18.3
2022-09-04T05:41:56.822Z,18.4
2022-09-04T05:42:59.135Z,18.4
2022-09-04T05:44:01.646Z,18.4
2022-09-04T05:45:04.190Z,18.4
2022-09-04T05:46:07.544Z,18.4
2022-09-04T05:47:10.893Z,18.4
2022-09-04T05:48:13.678Z,18.4
2022-09-04T05:49:16.833Z,18.4
2022-09-04T05:50:22.140Z,18.4
2022-09-04T05:51:25.062Z,18.4
2022-09-04T05:52:27.498Z,18.4
2022-09-04T05:53:30.723Z,18.4
2022-09-04T05:54:33.575Z,18.4
2022-09-04T05:55:36.718Z,18.4
2022-09-04T05:56:39.593Z,18.4
2022-09-04T05:57:42.733Z,18.4
2022-09-04T05:58:45.609Z,18.4
2022-09-04T05:59:48.673Z,18.4
2022-09-04T06:00:52.116Z,18.4
2022-09-04T06:01:56.627Z,18.4
2022-09-04T06:02:59.535Z,18.4
2022-09-04T06:04:02.536Z,18.4
2022-09-04T06:05:05.683Z,18.4
2022-09-04T06:06:09.115Z,18.3
2022-09-04T06:07:11.842Z,18.3
2022-09-04T06:08:14.901Z,18.4
2022-09-04T06:09:17.887Z,18.4
2022-09-04T06:10:21.092Z,18.4
2022-09-04T06:11:24.238Z,18.4
2022-09-04T06:12:27.386Z,18.4
2022-09-04T06:13:32.932Z,18.4
2022-09-04T06:14:36.273Z,18.4
2022-09-04T06:15:39.746Z,18.4
2022-09-04T06:16:43.238Z,18.4
2022-09-04T06:17:45.672Z,18.4
2022-09-04T06:18:48.095Z,18.4
2022-09-04T06:19:51.535Z,18.4
2022-09-04T06:20:54.591Z,18.4
2022-09-04T06:21:58.016Z,18.4
2022-09-04T06:23:04.144Z,18.4
2022-09-04T06:24:07.369Z,18.4
2022-09-04T06:25:11.410Z,18.4
2022-09-04T06:26:14.292Z,18.4
2022-09-04T06:27:17.446Z,18.4
2022-09-04T06:28:20.382Z,18.4
2022-09-04T06:29:23.546Z,18.4
2022-09-04T06:30:26.508Z,18.4
2022-09-04T06:31:29.881Z,18.4
2022-09-04T06:32:33.446Z,18.4
2022-09-04T06:33:36.515Z,18.4
2022-09-04T06:34:38.916Z,18.4
2022-09-04T06:35:43.567Z,18.5
2022-09-04T06:36:46.990Z,18.5
2022-09-04T06:37:49.663Z,18.5
2022-09-04T06:38:52.457Z,18.5
2022-09-04T06:39:55.640Z,18.5
2022-09-04T06:40:59.044Z,18.5
2022-09-04T06:42:01.837Z,18.5
2022-09-04T06:43:04.421Z,18.5
2022-09-04T06:44:07.687Z,18.5
2022-09-04T06:45:10.202Z,18.6
2022-09-04T06:46:17.039Z,18.6
2022-09-04T06:47:20.036Z,18.6
2022-09-04T06:48:23.198Z,18.6
2022-09-04T06:49:27.000Z,18.7
2022-09-04T06:50:29.591Z,18.7
2022-09-04T06:51:33.744Z,18.7
2022-09-04T06:52:38.120Z,18.7
2022-09-04T06:53:40.633Z,18.8
2022-09-04T06:54:43.991Z,18.7
2022-09-04T06:55:47.156Z,18.8
2022-09-04T06:56:52.772Z,18.8
2022-09-04T06:57:56.059Z,18.8
2022-09-04T06:59:02.300Z,18.8
2022-09-04T07:00:05.189Z,18.9
2022-09-04T07:01:08.023Z,18.9
2022-09-04T07:02:11.887Z,18.9
2022-09-04T07:03:15.874Z,18.9
2022-09-04T07:04:18.205Z,19
2022-09-04T07:05:20.991Z,19
2022-09-04T07:06:24.131Z,19
2022-09-04T07:07:27.113Z,19
2022-09-04T07:08:29.946Z,19
2022-09-04T07:09:33.055Z,19
2022-09-04T07:10:35.856Z,19.1
2022-09-04T07:11:38.933Z,19.1
2022-09-04T07:12:41.520Z,19.1
2022-09-04T07:13:44.941Z,19.2
2022-09-04T07:14:48.023Z,19.2
2022-09-04T07:15:50.752Z,19.2
2022-09-04T07:16:54.107Z,19.2
2022-09-04T07:18:02.162Z,19.3
2022-09-04T07:19:05.308Z,19.3
2022-09-04T07:20:08.094Z,19.3
2022-09-04T07:21:11.509Z,19.4
2022-09-04T07:22:14.938Z,19.4
2022-09-04T07:23:18.085Z,19.4
2022-09-04T07:24:20.402Z,19.5
2022-09-04T07:25:23.463Z,19.5
2022-09-04T07:26:26.142Z,19.6
2022-09-04T07:27:28.099Z,19.6
2022-09-04T07:28:30.885Z,19.6
2022-09-04T07:29:34.480Z,19.6
2022-09-04T07:30:37.272Z,19.7
2022-09-04T07:31:40.507Z,19.7
2022-09-04T07:32:43.799Z,19.7
2022-09-04T07:33:46.660Z,19.7
2022-09-04T07:34:50.173Z,19.8
2022-09-04T07:35:52.685Z,19.8
2022-09-04T07:36:55.676Z,19.9
2022-09-04T07:37:58.730Z,19.9
2022-09-04T07:39:01.408Z,19.9
2022-09-04T07:40:09.335Z,20
2022-09-04T07:41:18.515Z,20
2022-09-04T07:42:21.376Z,20
2022-09-04T07:43:24.573Z,20
2022-09-04T07:44:27.437Z,20.1
2022-09-04T07:45:30.067Z,20.1
2022-09-04T07:46:33.302Z,20.1
2022-09-04T07:47:36.745Z,20.2
2022-09-04T07:48:39.821Z,20.2
2022-09-04T07:49:42.891Z,20.3
2022-09-04T07:50:45.698Z,20.3
2022-09-04T07:51:48.945Z,20.3
2022-09-04T07:53:07.293Z,20.4
2022-09-04T07:54:23.677Z,20.4
2022-09-04T07:55:27.299Z,20.4
2022-09-04T07:56:30.454Z,20.4
2022-09-04T07:57:33.596Z,20.5
2022-09-04T07:58:36.203Z,20.5
2022-09-04T07:59:39.905Z,20.5
2022-09-04T08:00:43.416Z,20.5
2022-09-04T08:01:46.213Z,20.5
2022-09-04T08:02:49.271Z,20.6
2022-09-04T08:03:55.431Z,20.6
2022-09-04T08:04:58.707Z,20.6
2022-09-04T08:06:01.763Z,20.7
2022-09-04T08:07:11.808Z,20.7
2022-09-04T08:08:14.946Z,20.8
2022-09-04T08:09:18.394Z,20.8
2022-09-04T08:10:20.838Z,20.9
2022-09-04T08:11:23.780Z,20.9
2022-09-04T08:12:26.933Z,20.9
2022-09-04T08:13:29.797Z,21
2022-09-04T08:14:33.026Z,21
2022-09-04T08:15:43.531Z,21.1
2022-09-04T08:16:46.059Z,21.2
2022-09-04T08:17:49.471Z,21.2
2022-09-04T08:18:52.591Z,21.3
2022-09-04T08:19:54.641Z,21.3
2022-09-04T08:20:57.705Z,21.3
2022-09-04T08:22:00.768Z,21.4
2022-09-04T08:23:03.910Z,21.4
2022-09-04T08:24:07.373Z,21.5
2022-09-04T08:25:10.154Z,21.5
2022-09-04T08:26:12.966Z,21.6
2022-09-04T08:27:16.116Z,21.6
2022-09-04T08:28:19.633Z,21.6
2022-09-04T08:29:22.640Z,21.7
2022-09-04T08:30:26.056Z,21.7
2022-09-04T08:31:29.496Z,21.7
2022-09-04T08:32:39.139Z,21.8
2022-09-04T08:33:41.928Z,21.8
2022-09-04T08:34:44.920Z,21.9
2022-09-04T08:35:47.363Z,21.9
2022-09-04T08:36:50.227Z,22
2022-09-04T08:37:52.538Z,22
2022-09-04T08:38:54.845Z,22.1
2022-09-04T08:39:58.575Z,22.1
2022-09-04T08:41:02.055Z,22.1
2022-09-04T08:42:04.919Z,22.2
2022-09-04T08:43:07.808Z,22.3
2022-09-04T08:44:10.696Z,22.3
2022-09-04T08:45:13.360Z,22.4
2022-09-04T08:46:17.018Z,22.4
2022-09-04T08:47:19.797Z,22.5
2022-09-04T08:48:22.733Z,22.5
2022-09-04T08:49:25.607Z,22.6
2022-09-04T08:50:28.483Z,22.7
2022-09-04T08:51:31.285Z,22.7
2022-09-04T08:52:34.737Z,22.7
2022-09-04T08:53:37.940Z,22.8
2022-09-04T08:54:40.177Z,22.8
2022-09-04T08:55:43.405Z,22.9
2022-09-04T08:56:46.284Z,22.9
2022-09-04T08:57:49.475Z,23
2022-09-04T08:58:56.177Z,23
2022-09-04T08:59:59.653Z,23.1
2022-09-04T09:01:02.608Z,23.2
2022-09-04T09:02:05.676Z,23.2
2022-09-04T09:03:09.233Z,23.3
2022-09-04T09:04:12.501Z,23.4
2022-09-04T09:05:15.172Z,23.4
2022-09-04T09:06:17.957Z,23.5
2022-09-04T09:07:20.394Z,23.6
2022-09-04T09:08:24.033Z,23.6
2022-09-04T09:09:34.259Z,23.7
2022-09-04T09:10:38.239Z,23.7
2022-09-04T09:11:42.034Z,23.8
2022-09-04T09:12:44.830Z,23.9
2022-09-04T09:13:47.709Z,24
2022-09-04T09:14:50.515Z,24
2022-09-04T09:15:53.645Z,24.1
2022-09-04T09:16:56.499Z,24.2
2022-09-04T09:17:59.960Z,24.2
2022-09-04T09:19:03.370Z,24.3
2022-09-04T09:20:06.518Z,24.4
2022-09-04T09:21:09.860Z,24.5
2022-09-04T09:22:13.757Z,24.5
2022-09-04T09:23:19.082Z,24.6
2022-09-04T09:24:22.720Z,24.7
2022-09-04T09:25:25.436Z,24.8
2022-09-04T09:26:27.827Z,24.8
2022-09-04T09:27:30.930Z,24.9
2022-09-04T09:28:34.004Z,25
2022-09-04T09:29:37.176Z,25
2022-09-04T09:30:40.337Z,25.1
2022-09-04T09:31:43.472Z,25.2
2022-09-04T09:32:46.519Z,25.3
2022-09-04T09:33:49.299Z,25.3
2022-09-04T09:34:51.890Z,25.4
2022-09-04T09:35:55.135Z,25.4
2022-09-04T09:36:58.146Z,25.5
2022-09-04T09:38:05.427Z,25.5
2022-09-04T09:39:08.302Z,25.5
2022-09-04T09:40:11.175Z,25.6
2022-09-04T09:41:14.444Z,25.7
2022-09-04T09:42:16.755Z,25.7
2022-09-04T09:43:20.046Z,25.8
2022-09-04T09:44:22.816Z,25.8
2022-09-04T09:45:26.262Z,25.9
2022-09-04T09:46:29.363Z,25.9
2022-09-04T09:47:31.811Z,26
2022-09-04T09:48:34.876Z,26.1
2022-09-04T09:49:39.234Z,26.1
2022-09-04T09:50:41.834Z,26.2
2022-09-04T09:51:44.705Z,26.3
2022-09-04T09:52:49.072Z,26.2
2022-09-04T09:53:51.584Z,26.3
2022-09-04T09:54:54.384Z,26.4
2022-09-04T09:55:57.188Z,26.4
2022-09-04T09:57:00.608Z,26.4
2022-09-04T09:58:03.875Z,26.4
2022-09-04T09:59:06.944Z,26.5
2022-09-04T10:00:10.671Z,26.5
2022-09-04T10:01:14.137Z,26.6
2022-09-04T10:02:17.516Z,26.6
2022-09-04T10:03:20.273Z,26.7
2022-09-04T10:04:23.446Z,26.7
2022-09-04T10:05:26.109Z,26.8
2022-09-04T10:06:29.251Z,26.8
2022-09-04T10:07:31.488Z,26.9
2022-09-04T10:08:37.115Z,26.9
2022-09-04T10:09:40.007Z,26.9
2022-09-04T10:10:43.161Z,27
2022-09-04T10:11:46.312Z,27
2022-09-04T10:12:49.685Z,27
2022-09-04T10:13:53.134Z,27
2022-09-04T10:14:56.363Z,27.1
2022-09-04T10:15:59.282Z,27.1
2022-09-04T10:17:02.174Z,27.2
2022-09-04T10:18:05.937Z,27.3
2022-09-04T10:19:09.135Z,27.3
2022-09-04T10:20:11.724Z,27.4
2022-09-04T10:21:14.605Z,27.5
2022-09-04T10:22:17.696Z,27.5
2022-09-04T10:23:21.241Z,27.6
2022-09-04T10:24:24.709Z,27.6
2022-09-04T10:25:27.301Z,27.6
2022-09-04T10:26:32.932Z,27.7
2022-09-04T10:27:41.844Z,27.7
2022-09-04T10:28:46.515Z,27.8
2022-09-04T10:29:48.828Z,27.9
2022-09-04T10:30:51.468Z,28
2022-09-04T10:31:54.926Z,28.1
2022-09-04T10:32:57.878Z,28.1
2022-09-04T10:34:00.468Z,28.2
2022-09-04T10:35:03.579Z,28.3
2022-09-04T10:36:06.654Z,28.3
2022-09-04T10:37:09.456Z,28.4
2022-09-04T10:38:12.605Z,28.4
2022-09-04T10:39:19.542Z,28.4
2022-09-04T10:40:22.570Z,28.5
2022-09-04T10:41:24.878Z,28.6
2022-09-04T10:42:27.695Z,28.6
2022-09-04T10:43:30.490Z,28.7
2022-09-04T10:44:34.292Z,28.7
2022-09-04T10:45:37.217Z,28.8
2022-09-04T10:46:41.139Z,28.9
2022-09-04T10:47:44.559Z,28.9
2022-09-04T10:48:47.153Z,29
2022-09-04T10:49:50.493Z,29.1
2022-09-04T10:50:53.561Z,29.1
2022-09-04T10:51:56.439Z,29.2
2022-09-04T10:52:59.228Z,29.2
2022-09-04T10:54:08.603Z,29.3
2022-09-04T10:55:11.473Z,29.4
2022-09-04T10:56:13.429Z,29.4
2022-09-04T10:57:16.291Z,29.5
2022-09-04T10:58:19.193Z,29.6
2022-09-04T10:59:22.162Z,29.6
2022-09-04T11:00:26.186Z,29.6
2022-09-04T11:01:29.567Z,29.7
2022-09-04T11:02:32.847Z,29.7
2022-09-04T11:03:36.463Z,29.7
2022-09-04T11:04:39.444Z,29.8
2022-09-04T11:05:43.964Z,29.8
2022-09-04T11:06:47.065Z,29.9
2022-09-04T11:07:49.855Z,30
2022-09-04T11:08:52.293Z,30
2022-09-04T11:09:55.456Z,30.1
2022-09-04T11:10:58.414Z,30.2
2022-09-04T11:12:01.290Z,30.2
2022-09-04T11:13:05.617Z,30.2
2022-09-04T11:14:08.511Z,30.2
2022-09-04T11:15:12.218Z,30.2
2022-09-04T11:16:15.667Z,30.2
2022-09-04T11:17:24.756Z,30.2
2022-09-04T11:18:27.359Z,30.2
2022-09-04T11:19:29.865Z,30.2
2022-09-04T11:20:32.863Z,30.2
2022-09-04T11:21:35.462Z,30.2
2022-09-04T11:22:38.556Z,30.2
2022-09-04T11:23:43.898Z,30.1
2022-09-04T11:24:47.164Z,30.1
2022-09-04T11:25:50.512Z,30.1
2022-09-04T11:26:53.866Z,30.1
2022-09-04T11:27:56.774Z,30.1
2022-09-04T11:28:59.931Z,30.1
2022-09-04T11:30:02.500Z,30.1
2022-09-04T11:31:06.293Z,30.1
2022-09-04T11:32:09.155Z,30.2
2022-09-04T11:33:12.583Z,30.2
2022-09-04T11:34:15.095Z,30.3
2022-09-04T11:35:19.313Z,30.3
2022-09-04T11:36:21.565Z,30.4
2022-09-04T11:37:24.805Z,30.4
2022-09-04T11:38:27.954Z,30.4
2022-09-04T11:39:31.104Z,30.5
2022-09-04T11:40:34.147Z,30.5
2022-09-04T11:41:36.387Z,30.5
2022-09-04T11:42:39.303Z,30.4
2022-09-04T11:43:42.509Z,30.3
2022-09-04T11:44:45.957Z,30.2
2022-09-04T11:45:49.718Z,30.1
2022-09-04T11:46:52.605Z,30
2022-09-04T11:47:55.411Z,30
2022-09-04T11:48:58.355Z,30
2022-09-04T11:50:01.222Z,30
2022-09-04T11:51:04.014Z,30.1
2022-09-04T11:52:07.732Z,30.2
2022-09-04T11:53:11.073Z,30.2
2022-09-04T11:54:14.421Z,30.3
2022-09-04T11:55:17.392Z,30.3
2022-09-04T11:56:20.743Z,30.3
2022-09-04T11:57:24.189Z,30.4
2022-09-04T11:58:27.074Z,30.4
2022-09-04T11:59:29.786Z,30.5
2022-09-04T12:00:32.651Z,30.5
2022-09-04T12:01:36.057Z,30.6
2022-09-04T12:02:39.673Z,30.6
2022-09-04T12:03:42.419Z,30.6
2022-09-04T12:04:45.734Z,30.5
2022-09-04T12:05:49.233Z,30.5
2022-09-04T12:06:52.825Z,30.4
2022-09-04T12:07:55.620Z,30.4
2022-09-04T12:08:58.809Z,30.4
2022-09-04T12:10:02.305Z,30.4
2022-09-04T12:11:05.193Z,30.4
2022-09-04T12:12:07.783Z,30.5
2022-09-04T12:13:27.152Z,30.6
2022-09-04T12:14:32.329Z,30.7
2022-09-04T12:15:34.730Z,30.8
2022-09-04T12:16:38.097Z,30.8
2022-09-04T12:17:40.916Z,30.9
2022-09-04T12:18:44.271Z,31
2022-09-04T12:19:47.737Z,31
2022-09-04T12:20:50.709Z,31.1
2022-09-04T12:21:53.863Z,31.2
2022-09-04T12:22:56.445Z,31.2
2022-09-04T12:23:59.330Z,31.3
2022-09-04T12:25:02.186Z,31.3
2022-09-04T12:26:07.090Z,31.3
2022-09-04T12:27:15.545Z,31.3
2022-09-04T12:28:18.605Z,31.3
2022-09-04T12:29:21.970Z,31.3
2022-09-04T12:30:24.318Z,31.2
2022-09-04T12:31:27.017Z,31.3
2022-09-04T12:32:30.358Z,31.3
2022-09-04T12:33:33.069Z,31.3
2022-09-04T12:34:35.881Z,31.4
2022-09-04T12:35:38.495Z,31.4
2022-09-04T12:36:41.289Z,31.4
2022-09-04T12:37:43.954Z,31.5
2022-09-04T12:38:46.638Z,31.5
2022-09-04T12:39:49.767Z,31.6
2022-09-04T12:40:53.366Z,31.6
2022-09-04T12:41:55.818Z,31.7
2022-09-04T12:42:59.040Z,31.6
2022-09-04T12:44:02.496Z,31.7
2022-09-04T12:45:05.449Z,31.6
2022-09-04T12:46:08.563Z,31.6
2022-09-04T12:47:11.975Z,31.6
2022-09-04T12:48:16.177Z,31.5
2022-09-04T12:49:18.965Z,31.4
2022-09-04T12:50:21.847Z,31.4
2022-09-04T12:51:25.438Z,31.3
2022-09-04T12:52:28.248Z,31.3
2022-09-04T12:53:31.773Z,31.3
2022-09-04T12:54:34.667Z,31.2
2022-09-04T12:55:38.161Z,31.1
2022-09-04T12:56:41.272Z,31
2022-09-04T12:57:44.716Z,30.8
2022-09-04T12:58:47.689Z,30.7
2022-09-04T12:59:50.556Z,30.5
2022-09-04T13:00:53.036Z,30.4
2022-09-04T13:01:57.568Z,30.3
2022-09-04T13:03:01.359Z,30.3
2022-09-04T13:04:04.389Z,30.2
2022-09-04T13:05:07.784Z,30.2
2022-09-04T13:06:10.936Z,30.2
2022-09-04T13:07:17.254Z,30.1
2022-09-04T13:08:19.875Z,30
2022-09-04T13:09:22.758Z,29.9
2022-09-04T13:10:25.474Z,29.9
2022-09-04T13:11:28.562Z,29.8
2022-09-04T13:12:31.639Z,29.7
2022-09-04T13:13:34.232Z,29.7
2022-09-04T13:14:39.393Z,29.6
2022-09-04T13:15:42.695Z,29.6
2022-09-04T13:16:47.010Z,29.5
2022-09-04T13:17:52.984Z,29.5
2022-09-04T13:18:55.596Z,29.5
2022-09-04T13:19:58.673Z,29.4
2022-09-04T13:21:01.833Z,29.5
2022-09-04T13:22:04.971Z,29.4
2022-09-04T13:23:12.189Z,29.4
2022-09-04T13:24:15.425Z,29.4
2022-09-04T13:25:18.856Z,29.4
2022-09-04T13:26:21.373Z,29.4
2022-09-04T13:27:24.458Z,29.4
2022-09-04T13:28:29.654Z,29.5
2022-09-04T13:29:32.476Z,29.4
2022-09-04T13:30:38.251Z,29.5
2022-09-04T13:31:41.047Z,29.5
2022-09-04T13:32:44.565Z,29.5
2022-09-04T13:33:51.563Z,29.6
2022-09-04T13:34:55.719Z,29.6
2022-09-04T13:35:59.081Z,29.6
2022-09-04T13:37:01.614Z,29.6
2022-09-04T13:38:04.205Z,29.6
2022-09-04T13:39:07.459Z,29.5
2022-09-04T13:40:10.898Z,29.6
2022-09-04T13:41:13.859Z,29.6
2022-09-04T13:42:16.647Z,29.5
2022-09-04T13:43:20.290Z,29.6
2022-09-04T13:44:23.468Z,29.6
2022-09-04T13:45:27.165Z,29.6
2022-09-04T13:46:30.737Z,29.7
2022-09-04T13:47:34.316Z,29.8
2022-09-04T13:48:37.990Z,29.8
2022-09-04T13:49:41.174Z,29.9
2022-09-04T13:50:44.732Z,29.9
2022-09-04T13:51:48.247Z,30
2022-09-04T13:52:51.511Z,29.9
2022-09-04T13:53:55.586Z,29.9
2022-09-04T13:54:58.956Z,29.9
2022-09-04T13:56:02.919Z,30
2022-09-04T13:57:06.702Z,30
2022-09-04T13:58:11.157Z,30
2022-09-04T13:59:13.619Z,30
2022-09-04T14:00:16.362Z,30
2022-09-04T14:01:19.860Z,30
2022-09-04T14:02:23.789Z,30
2022-09-04T14:03:26.982Z,29.9
2022-09-04T14:04:31.490Z,29.9
2022-09-04T14:05:35.622Z,29.9
2022-09-04T14:06:40.203Z,29.8
2022-09-04T14:07:46.114Z,29.7
2022-09-04T14:09:06.716Z,29.7